createdAt,value
2022-08-25T00:00:28.878Z,7.30
2022-08-25T00:02:58.770Z,6.73
2022-08-25T00:05:32.552Z,7.70
2022-08-25T00:08:03.746Z,6.10
2022-08-25T00:10:37.821Z,6.33
2022-08-25T00:13:07.703Z,6.57
2022-08-25T00:15:38.372Z,6.03
2022-08-25T00:18:16.958Z,6.30
2022-08-25T00:20:49.657Z,8.07
2022-08-25T00:23:19.182Z,8.90
2022-08-25T00:25:51.402Z,8.47
2022-08-25T00:28:21.140Z,8.30
2022-08-25T00:30:50.768Z,5.40
2022-08-25T00:33:20.881Z,8.00
2022-08-25T00:35:50.569Z,7.97
2022-08-25T00:38:20.078Z,9.90
2022-08-25T00:41:06.058Z,8.00
2022-08-25T00:43:40.102Z,6.60
2022-08-25T00:46:10.204Z,8.70
2022-08-25T00:48:42.283Z,6.80
2022-08-25T00:51:15.821Z,6.27
2022-08-25T00:53:46.475Z,6.47
2022-08-25T00:56:18.859Z,5.90
2022-08-25T00:58:51.132Z,6.40
2022-08-25T01:01:21.058Z,6.17
2022-08-25T01:03:50.750Z,5.80
2022-08-25T01:06:20.475Z,5.50
2022-08-25T01:08:50.178Z,5.93
2022-08-25T01:11:22.469Z,6.10
2022-08-25T01:13:55.616Z,5.80
2022-08-25T01:16:25.553Z,6.00
2022-08-25T01:18:57.133Z,6.10
2022-08-25T01:21:31.603Z,6.70
2022-08-25T01:24:02.862Z,5.47
2022-08-25T01:26:34.190Z,5.43
2022-08-25T01:29:19.419Z,5.53
2022-08-25T01:31:49.790Z,6.50
2022-08-25T01:34:21.381Z,6.40
2022-08-25T01:36:53.729Z,6.60
2022-08-25T01:39:23.834Z,7.00
2022-08-25T01:42:02.604Z,6.07
2022-08-25T01:44:32.387Z,5.83
2022-08-25T01:47:01.865Z,6.00
2022-08-25T01:49:31.519Z,6.43
2022-08-25T01:52:05.490Z,7.13
2022-08-25T01:54:35.059Z,6.53
2022-08-25T01:57:04.552Z,7.17
2022-08-25T01:59:34.005Z,6.30
2022-08-25T02:02:04.891Z,6.20
2022-08-25T02:04:35.130Z,6.27
2022-08-25T02:07:10.119Z,7.37
2022-08-25T02:09:41.351Z,6.10
2022-08-25T02:12:12.317Z,7.27
2022-08-25T02:14:41.852Z,6.00
2022-08-25T02:17:11.526Z,6.73
2022-08-25T02:19:40.984Z,6.63
2022-08-25T02:22:13.345Z,6.90
2022-08-25T02:24:42.865Z,6.30
2022-08-25T02:27:12.366Z,6.13
2022-08-25T02:29:41.801Z,7.27
2022-08-25T02:32:13.163Z,7.30
2022-08-25T02:34:42.826Z,6.70
2022-08-25T02:37:15.016Z,6.93
2022-08-25T02:39:44.520Z,6.23
2022-08-25T02:42:14.658Z,6.27
2022-08-25T02:44:44.185Z,6.70
2022-08-25T02:47:13.657Z,6.67
2022-08-25T02:49:43.117Z,6.83
2022-08-25T02:52:15.210Z,6.33
2022-08-25T02:54:44.888Z,6.90
2022-08-25T02:57:15.911Z,6.77
2022-08-25T02:59:48.290Z,7.10
2022-08-25T03:02:18.240Z,6.57
2022-08-25T03:04:47.770Z,7.57
2022-08-25T03:07:20.145Z,8.00
2022-08-25T03:09:51.103Z,7.37
2022-08-25T03:12:20.642Z,7.30
2022-08-25T03:14:50.153Z,7.30
2022-08-25T03:17:19.705Z,7.50
2022-08-25T03:19:49.210Z,7.10
2022-08-25T03:22:21.324Z,7.90
2022-08-25T03:24:50.938Z,7.30
2022-08-25T03:27:17.914Z,7.50
2022-08-25T03:29:48.217Z,7.77
2022-08-25T03:32:18.103Z,7.47
2022-08-25T03:34:47.587Z,7.67
2022-08-25T03:37:17.061Z,7.73
2022-08-25T03:39:49.384Z,7.40
2022-08-25T03:42:18.902Z,8.27
2022-08-25T03:44:49.286Z,7.60
2022-08-25T03:47:19.026Z,8.43
2022-08-25T03:49:48.476Z,8.43
2022-08-25T03:52:18.303Z,7.80
2022-08-25T03:54:50.417Z,8.10
2022-08-25T03:57:20.723Z,7.90
2022-08-25T03:59:50.553Z,7.20
2022-08-25T04:02:20.570Z,8.03
2022-08-25T04:04:50.358Z,8.40
2022-08-25T04:07:20.407Z,8.53
2022-08-25T04:09:52.534Z,8.33
2022-08-25T04:12:22.010Z,7.50
2022-08-25T04:14:52.405Z,8.27
2022-08-25T04:17:22.946Z,8.43
2022-08-25T04:19:52.862Z,8.50
2022-08-25T04:22:22.577Z,8.00
2022-08-25T04:24:55.218Z,8.70
2022-08-25T04:27:24.712Z,7.87
2022-08-25T04:29:54.814Z,7.63
2022-08-25T04:32:24.402Z,7.93
2022-08-25T04:34:54.133Z,8.10
2022-08-25T04:37:23.611Z,7.67
2022-08-25T04:39:55.896Z,8.40
2022-08-25T04:42:27.053Z,7.30
2022-08-25T04:44:56.797Z,8.20
2022-08-25T04:47:26.425Z,8.57
2022-08-25T04:49:57.630Z,8.37
2022-08-25T04:52:27.117Z,8.07
2022-08-25T04:54:59.819Z,7.87
2022-08-25T04:57:29.382Z,8.50
2022-08-25T04:59:58.893Z,8.00
2022-08-25T05:02:28.636Z,8.13
2022-08-25T05:04:58.396Z,8.00
2022-08-25T05:07:28.746Z,8.20
2022-08-25T05:10:00.830Z,8.53
2022-08-25T05:12:31.547Z,10.87
2022-08-25T05:15:22.594Z,30.17
2022-08-25T05:17:55.837Z,14.17
2022-08-25T05:20:25.890Z,17.47
2022-08-25T05:22:55.594Z,16.43
2022-08-25T05:25:27.802Z,13.33
2022-08-25T05:27:57.418Z,13.40
2022-08-25T05:30:27.295Z,13.40
2022-08-25T05:32:57.304Z,12.53
2022-08-25T05:35:26.799Z,11.80
2022-08-25T05:37:57.415Z,11.07
2022-08-25T05:40:29.665Z,10.90
2022-08-25T05:42:59.309Z,11.77
2022-08-25T05:45:29.295Z,11.60
2022-08-25T05:47:58.818Z,11.47
2022-08-25T05:50:28.428Z,11.83
2022-08-25T05:52:57.968Z,11.30
2022-08-25T05:55:30.058Z,11.43
2022-08-25T05:57:59.638Z,13.10
2022-08-25T06:00:29.138Z,11.13
2022-08-25T06:02:56.249Z,12.03
2022-08-25T06:05:29.622Z,12.77
2022-08-25T06:07:59.309Z,13.70
2022-08-25T06:10:31.581Z,12.93
2022-08-25T06:13:01.112Z,12.50
2022-08-25T06:15:31.388Z,13.80
2022-08-25T06:18:03.507Z,13.10
2022-08-25T06:20:34.321Z,15.30
2022-08-25T06:23:03.983Z,16.40
2022-08-25T06:25:36.030Z,14.00
2022-08-25T06:28:06.014Z,14.10
2022-08-25T06:30:35.745Z,15.07
2022-08-25T06:33:05.281Z,14.37
2022-08-25T06:35:34.779Z,17.00
2022-08-25T06:38:05.101Z,27.20
2022-08-25T06:40:37.486Z,22.13
2022-08-25T06:43:08.978Z,34.80
2022-08-25T06:45:38.504Z,25.97
2022-08-25T06:48:08.493Z,20.13
2022-08-25T06:50:38.106Z,21.33
2022-08-25T06:53:07.628Z,16.97
2022-08-25T06:55:39.928Z,16.33
2022-08-25T06:58:11.276Z,17.13
2022-08-25T07:00:41.314Z,15.70
2022-08-25T07:03:10.972Z,15.80
2022-08-25T07:05:43.777Z,16.10
2022-08-25T07:08:13.933Z,16.73
2022-08-25T07:10:48.002Z,16.87
2022-08-25T07:13:18.556Z,17.37
2022-08-25T07:15:48.366Z,19.07
2022-08-25T07:18:17.983Z,28.50
2022-08-25T07:20:47.627Z,22.90
2022-08-25T07:23:17.239Z,24.33
2022-08-25T07:25:49.522Z,19.70
2022-08-25T07:28:20.114Z,20.73
2022-08-25T07:30:51.728Z,21.07
2022-08-25T07:33:21.466Z,18.20
2022-08-25T07:35:48.872Z,17.30
2022-08-25T07:38:20.920Z,18.97
2022-08-25T07:40:54.846Z,18.60
2022-08-25T07:43:26.575Z,18.67
2022-08-25T07:45:56.119Z,21.10
2022-08-25T07:48:25.759Z,18.23
2022-08-25T07:50:55.328Z,18.03
2022-08-25T07:53:25.518Z,20.27
2022-08-25T07:55:57.622Z,15.30
2022-08-25T07:58:27.209Z,16.80
2022-08-25T08:00:56.842Z,18.67
2022-08-25T08:03:44.575Z,16.83
2022-08-25T08:06:18.077Z,16.30
2022-08-25T08:08:49.894Z,16.10
2022-08-25T08:11:23.941Z,13.67
2022-08-25T08:13:54.220Z,13.67
2022-08-25T08:16:25.910Z,14.23
2022-08-25T08:18:55.543Z,13.37
2022-08-25T08:21:27.334Z,13.40
2022-08-25T08:23:59.142Z,13.23
2022-08-25T08:26:55.499Z,14.93
2022-08-25T08:29:22.719Z,12.90
2022-08-25T08:31:52.448Z,16.90
2022-08-25T08:34:24.777Z,13.50
2022-08-25T08:36:54.590Z,15.47
2022-08-25T08:39:24.084Z,14.53
2022-08-25T08:42:22.372Z,13.57
2022-08-25T08:45:02.846Z,14.40
2022-08-25T08:47:41.362Z,13.90
2022-08-25T08:50:24.928Z,13.67
2022-08-25T08:53:01.367Z,13.80
2022-08-25T08:55:33.801Z,14.40
2022-08-25T08:58:08.280Z,17.87
2022-08-25T09:00:43.746Z,20.17
2022-08-25T09:03:30.710Z,21.57
2022-08-25T09:06:03.926Z,13.50
2022-08-25T09:08:36.565Z,16.20
2022-08-25T09:11:22.439Z,14.40
2022-08-25T09:14:11.166Z,16.63
2022-08-25T09:16:57.792Z,18.60
2022-08-25T09:19:56.193Z,19.50
2022-08-25T09:22:38.539Z,20.40
2022-08-25T09:25:18.758Z,19.97
2022-08-25T09:28:01.388Z,19.20
2022-08-25T09:30:39.175Z,18.97
2022-08-25T09:33:09.839Z,23.63
2022-08-25T09:35:42.363Z,17.07
2022-08-25T09:38:14.456Z,22.10
2022-08-25T09:40:46.371Z,20.03
2022-08-25T09:43:24.188Z,14.77
2022-08-25T09:46:02.434Z,14.50
2022-08-25T09:48:39.773Z,14.30
2022-08-25T09:51:21.943Z,31.80
2022-08-25T09:53:56.666Z,18.93
2022-08-25T09:56:27.819Z,14.03
2022-08-25T09:59:03.098Z,9.27
2022-08-25T10:01:36.558Z,10.90
2022-08-25T10:04:13.971Z,10.37
2022-08-25T10:06:50.955Z,9.10
2022-08-25T10:09:29.818Z,9.97
2022-08-25T10:12:01.168Z,10.53
2022-08-25T10:14:38.732Z,10.33
2022-08-25T10:17:29.415Z,15.60
2022-08-25T10:20:17.502Z,6.30
2022-08-25T10:22:50.623Z,6.07
2022-08-25T10:25:30.330Z,6.83
2022-08-25T10:28:11.016Z,5.40
2022-08-25T10:30:54.667Z,8.77
2022-08-25T10:33:34.060Z,5.40
2022-08-25T10:36:07.970Z,5.37
2022-08-25T10:38:43.330Z,5.50
2022-08-25T10:41:30.835Z,6.07
2022-08-25T10:44:29.144Z,4.60
2022-08-25T10:47:06.815Z,6.50
2022-08-25T10:49:42.301Z,6.10
2022-08-25T10:52:16.367Z,6.40
2022-08-25T10:54:51.496Z,19.43
2022-08-25T10:57:29.817Z,7.30
2022-08-25T11:00:04.082Z,5.93
2022-08-25T11:03:06.460Z,6.23
2022-08-25T11:05:42.782Z,5.67
2022-08-25T11:08:16.443Z,7.20
2022-08-25T11:10:50.507Z,5.20
2022-08-25T11:13:26.908Z,5.77
2022-08-25T11:16:18.689Z,6.97
2022-08-25T11:18:53.702Z,4.50
2022-08-25T11:21:31.011Z,5.80
2022-08-25T11:24:17.845Z,17.00
2022-08-25T11:26:51.381Z,5.07
2022-08-25T11:29:21.930Z,10.13
2022-08-25T11:31:53.974Z,8.50
2022-08-25T11:34:25.380Z,6.10
2022-08-25T11:37:07.826Z,12.70
2022-08-25T11:40:13.755Z,5.60
2022-08-25T11:42:52.695Z,5.30
2022-08-25T11:45:37.881Z,4.23
2022-08-25T11:48:17.610Z,4.70
2022-08-25T11:51:04.867Z,11.37
2022-08-25T11:53:38.320Z,17.57
2022-08-25T11:56:13.377Z,4.97
2022-08-25T11:58:46.299Z,5.93
2022-08-25T12:01:46.154Z,4.90
2022-08-25T12:04:17.411Z,4.90
2022-08-25T12:07:17.022Z,6.40
2022-08-25T12:10:18.666Z,5.30
2022-08-25T12:13:04.673Z,4.97
2022-08-25T12:15:38.026Z,4.03
2022-08-25T12:18:13.837Z,4.33
2022-08-25T12:21:12.518Z,5.37
2022-08-25T12:23:44.826Z,4.57
2022-08-25T12:26:24.033Z,4.40
2022-08-25T12:29:02.202Z,4.07
2022-08-25T12:32:04.907Z,4.43
2022-08-25T12:34:45.567Z,3.93
2022-08-25T12:37:16.943Z,4.20
2022-08-25T12:39:48.848Z,4.00
2022-08-25T12:42:31.322Z,4.03
2022-08-25T12:45:30.885Z,4.20
2022-08-25T12:48:35.360Z,3.77
2022-08-25T12:51:06.755Z,3.63
2022-08-25T12:53:38.941Z,4.17
2022-08-25T12:56:11.594Z,4.47
2022-08-25T12:59:00.246Z,3.60
2022-08-25T13:01:39.138Z,4.03
2022-08-25T13:04:39.003Z,3.70
2022-08-25T13:07:18.709Z,3.70
2022-08-25T13:10:11.384Z,4.00
2022-08-25T13:12:46.931Z,3.77
2022-08-25T13:15:38.333Z,3.10
2022-08-25T13:18:32.577Z,4.00
2022-08-25T13:21:07.994Z,3.50
2022-08-25T13:23:39.645Z,3.80
2022-08-25T13:26:09.654Z,3.53
2022-08-25T13:28:42.006Z,3.10
2022-08-25T13:31:19.116Z,6.60
2022-08-25T13:33:56.151Z,10.97
2022-08-25T13:36:41.307Z,5.40
2022-08-25T13:39:17.049Z,7.27
2022-08-25T13:41:56.097Z,4.47
2022-08-25T13:44:28.640Z,4.87
2022-08-25T13:47:12.590Z,4.17
2022-08-25T13:49:45.675Z,3.20
2022-08-25T13:52:21.971Z,5.20
2022-08-25T13:55:01.430Z,5.00
2022-08-25T13:57:34.676Z,5.57
2022-08-25T14:00:09.602Z,5.93
2022-08-25T14:02:49.619Z,9.23
2022-08-25T14:05:36.185Z,4.33
2022-08-25T14:08:23.524Z,10.10
2022-08-25T14:11:05.590Z,3.50
2022-08-25T14:13:35.873Z,3.23
2022-08-25T14:16:17.577Z,4.07
2022-08-25T14:18:53.933Z,12.13
2022-08-25T14:21:28.726Z,4.30
2022-08-25T14:23:59.294Z,6.17
2022-08-25T14:26:29.560Z,3.67
2022-08-25T14:29:00.105Z,3.83
2022-08-25T14:31:32.224Z,4.50
2022-08-25T14:34:06.534Z,5.00
2022-08-25T14:36:37.030Z,4.87
2022-08-25T14:39:08.731Z,4.37
2022-08-25T14:41:40.944Z,6.33
2022-08-25T14:44:12.359Z,9.87
2022-08-25T14:46:45.442Z,8.60
2022-08-25T14:49:24.947Z,6.67
2022-08-25T14:51:55.334Z,8.10
2022-08-25T14:54:27.645Z,6.13
2022-08-25T14:56:57.473Z,4.60
2022-08-25T14:59:27.859Z,7.40
2022-08-25T15:01:58.542Z,19.53
2022-08-25T15:04:32.028Z,5.40
2022-08-25T15:07:22.853Z,6.40
2022-08-25T15:09:50.703Z,21.67
2022-08-25T15:12:46.162Z,5.50
2022-08-25T15:15:12.611Z,4.40
2022-08-25T15:17:44.488Z,5.50
2022-08-25T15:20:17.188Z,5.00
2022-08-25T15:22:48.150Z,6.00
2022-08-25T15:25:18.282Z,4.20
2022-08-25T15:27:47.784Z,5.70
2022-08-25T15:30:18.466Z,13.57
2022-08-25T15:32:48.770Z,9.10
2022-08-25T15:35:21.110Z,13.90
2022-08-25T15:37:57.369Z,5.97
2022-08-25T15:40:27.277Z,5.00
2022-08-25T15:42:57.577Z,41.27
2022-08-25T15:45:28.322Z,6.50
2022-08-25T15:47:57.798Z,4.13
2022-08-25T15:50:29.886Z,27.97
2022-08-25T15:52:59.630Z,4.80
2022-08-25T15:55:29.151Z,6.80
2022-08-25T15:57:58.674Z,13.00
2022-08-25T16:00:28.211Z,12.80
2022-08-25T16:03:01.421Z,7.20
2022-08-25T16:05:34.886Z,4.30
2022-08-25T16:08:04.399Z,6.67
2022-08-25T16:10:36.269Z,4.33
2022-08-25T16:13:07.026Z,12.80
2022-08-25T16:15:38.959Z,13.20
2022-08-25T16:18:10.986Z,6.50
2022-08-25T16:20:46.934Z,7.67
2022-08-25T16:23:17.462Z,4.90
2022-08-25T16:25:48.207Z,23.47
2022-08-25T16:28:20.231Z,5.30
2022-08-25T16:30:52.999Z,6.17
2022-08-25T16:33:23.014Z,5.87
2022-08-25T16:35:55.210Z,5.17
2022-08-25T16:38:24.705Z,17.60
2022-08-25T16:40:55.205Z,18.40
2022-08-25T16:43:25.638Z,9.83
2022-08-25T16:46:00.437Z,6.87
2022-08-25T16:48:31.264Z,12.63
2022-08-25T16:51:03.538Z,9.70
2022-08-25T16:53:46.049Z,6.53
2022-08-25T16:56:18.423Z,10.63
2022-08-25T16:58:48.345Z,7.20
2022-08-25T17:01:21.898Z,8.40
2022-08-25T17:03:54.195Z,5.00
2022-08-25T17:06:29.435Z,9.80
2022-08-25T17:08:59.289Z,5.87
2022-08-25T17:11:30.615Z,6.23
2022-08-25T17:14:06.818Z,5.60
2022-08-25T17:16:40.902Z,6.13
2022-08-25T17:19:12.723Z,8.37
2022-08-25T17:21:47.646Z,8.03
2022-08-25T17:24:19.459Z,5.57
2022-08-25T17:26:50.211Z,4.23
2022-08-25T17:29:19.995Z,5.17
2022-08-25T17:31:51.114Z,5.80
2022-08-25T17:34:23.023Z,5.37
2022-08-25T17:36:56.036Z,4.90
2022-08-25T17:39:26.169Z,7.70
2022-08-25T17:41:56.015Z,4.93
2022-08-25T17:44:25.600Z,4.53
2022-08-25T17:46:55.246Z,5.00
2022-08-25T17:49:27.499Z,6.40
2022-08-25T17:51:59.665Z,5.80
2022-08-25T17:54:29.146Z,5.70
2022-08-25T17:56:59.260Z,5.20
2022-08-25T17:59:28.697Z,4.90
2022-08-25T18:02:02.295Z,5.60
2022-08-25T18:04:31.921Z,5.67
2022-08-25T18:07:04.062Z,4.70
2022-08-25T18:09:34.537Z,6.77
2022-08-25T18:12:04.020Z,5.83
2022-08-25T18:14:33.493Z,18.50
2022-08-25T18:17:03.792Z,28.03
2022-08-25T18:19:34.264Z,38.13
2022-08-25T18:22:06.798Z,5.37
2022-08-25T18:24:36.654Z,7.80
2022-08-25T18:27:06.497Z,5.07
2022-08-25T18:29:36.285Z,5.20
2022-08-25T18:32:07.105Z,5.80
2022-08-25T18:34:36.789Z,6.73
2022-08-25T18:37:21.169Z,6.30
2022-08-25T18:40:03.248Z,5.57
2022-08-25T18:42:32.809Z,6.03
2022-08-25T18:45:03.598Z,5.33
2022-08-25T18:47:33.418Z,5.90
2022-08-25T18:50:04.637Z,5.00
2022-08-25T18:52:37.542Z,5.70
2022-08-25T18:55:07.857Z,5.30
2022-08-25T18:57:41.556Z,4.67
2022-08-25T19:00:15.863Z,5.50
2022-08-25T19:02:47.914Z,6.40
2022-08-25T19:05:18.770Z,5.37
2022-08-25T19:07:52.037Z,5.60
2022-08-25T19:10:23.954Z,6.10
2022-08-25T19:12:54.549Z,6.53
2022-08-25T19:15:26.877Z,5.27
2022-08-25T19:17:56.795Z,5.90
2022-08-25T19:20:29.626Z,5.00
2022-08-25T19:23:02.084Z,4.63
2022-08-25T19:25:34.736Z,5.30
2022-08-25T19:28:05.484Z,5.80
2022-08-25T19:30:35.974Z,5.10
2022-08-25T19:33:11.506Z,5.43
2022-08-25T19:35:50.306Z,5.40
2022-08-25T19:38:34.129Z,4.90
2022-08-25T19:41:09.377Z,5.33
2022-08-25T19:43:50.547Z,5.40
2022-08-25T19:46:33.108Z,6.77
2022-08-25T19:49:07.922Z,6.10
2022-08-25T19:51:43.874Z,6.03
2022-08-25T19:54:17.982Z,6.20
2022-08-25T19:56:54.503Z,5.43
2022-08-25T19:59:26.745Z,5.50
2022-08-25T20:02:07.500Z,5.30
2022-08-25T20:04:36.993Z,5.47
2022-08-25T20:07:06.657Z,4.93
2022-08-25T20:09:40.949Z,6.60
2022-08-25T20:12:11.866Z,4.70
2022-08-25T20:14:41.983Z,5.40
2022-08-25T20:17:14.652Z,7.10
2022-08-25T20:19:55.462Z,5.30
2022-08-25T20:22:26.924Z,6.17
2022-08-25T20:25:03.162Z,7.60
2022-08-25T20:27:40.985Z,5.80
2022-08-25T20:30:13.592Z,5.13
2022-08-25T20:32:43.482Z,6.03
2022-08-25T20:35:16.559Z,6.03
2022-08-25T20:37:47.605Z,5.87
2022-08-25T20:40:25.491Z,5.60
2022-08-25T20:42:55.750Z,5.70
2022-08-25T20:45:25.850Z,5.63
2022-08-25T20:47:55.733Z,5.87
2022-08-25T20:50:25.654Z,6.40
2022-08-25T20:52:58.385Z,6.20
2022-08-25T20:55:32.145Z,6.23
2022-08-25T20:58:09.938Z,6.30
2022-08-25T21:00:39.887Z,5.77
2022-08-25T21:03:09.364Z,6.83
2022-08-25T21:05:41.997Z,6.37
2022-08-25T21:08:11.733Z,6.40
2022-08-25T21:10:44.001Z,6.47
2022-08-25T21:13:13.463Z,7.30
2022-08-25T21:15:48.466Z,5.83
2022-08-25T21:18:18.218Z,6.10
2022-08-25T21:20:47.781Z,5.80
2022-08-25T21:23:17.284Z,6.80
2022-08-25T21:25:49.670Z,6.80
2022-08-25T21:28:19.668Z,6.53
2022-08-25T21:30:50.803Z,6.40
2022-08-25T21:33:26.253Z,5.90
2022-08-25T21:35:58.034Z,6.63
2022-08-25T21:38:28.646Z,6.70
2022-08-25T21:41:01.634Z,6.17
2022-08-25T21:43:32.001Z,7.10
2022-08-25T21:46:01.574Z,6.43
2022-08-25T21:48:31.126Z,6.93
2022-08-25T21:51:06.988Z,11.20
2022-08-25T21:53:38.925Z,7.33
2022-08-25T21:56:15.962Z,7.33
2022-08-25T21:58:49.072Z,7.13
2022-08-25T22:01:22.476Z,6.53
2022-08-25T22:03:52.651Z,6.43
2022-08-25T22:06:23.239Z,6.63
2022-08-25T22:08:53.094Z,6.70
2022-08-25T22:11:26.442Z,7.03
2022-08-25T22:13:56.490Z,6.37
2022-08-25T22:16:27.076Z,7.23
2022-08-25T22:18:59.520Z,6.47
2022-08-25T22:21:31.984Z,7.10
2022-08-25T22:24:01.907Z,6.77
2022-08-25T22:26:36.770Z,6.50
2022-08-25T22:29:07.636Z,7.10
2022-08-25T22:31:37.577Z,6.80
2022-08-25T22:34:07.449Z,7.10
2022-08-25T22:36:39.574Z,6.90
2022-08-25T22:39:10.909Z,7.27
2022-08-25T22:41:45.494Z,7.03
2022-08-25T22:44:15.182Z,7.53
2022-08-25T22:46:45.274Z,7.10
2022-08-25T22:49:14.829Z,7.20
2022-08-25T22:51:44.353Z,6.87
2022-08-25T22:54:16.869Z,7.03
2022-08-25T22:56:49.008Z,7.27
2022-08-25T22:59:18.597Z,7.67
2022-08-25T23:01:48.422Z,7.40
2022-08-25T23:04:18.037Z,7.00
2022-08-25T23:06:49.075Z,7.20
2022-08-25T23:09:18.944Z,7.70
2022-08-25T23:11:51.494Z,7.10
2022-08-25T23:14:21.791Z,7.50
2022-08-25T23:16:51.648Z,8.40
2022-08-25T23:19:21.642Z,7.23
2022-08-25T23:22:10.403Z,8.47
2022-08-25T23:24:42.819Z,8.03
2022-08-25T23:27:17.479Z,6.83
2022-08-25T23:29:50.025Z,7.80
2022-08-25T23:32:20.666Z,8.17
2022-08-25T23:34:50.173Z,6.97
2022-08-25T23:37:19.710Z,7.20
2022-08-25T23:39:49.949Z,8.17
2022-08-25T23:42:22.724Z,8.03
2022-08-25T23:44:53.399Z,8.60
2022-08-25T23:47:22.890Z,10.17
2022-08-25T23:49:52.417Z,8.07
2022-08-25T23:52:21.919Z,8.20
2022-08-25T23:54:51.444Z,6.90
2022-08-25T23:57:23.470Z,7.60
2022-08-25T23:59:53.430Z,7.77
